地図

経路データ

SID SEASON NUMBER BASIN SUBBASIN NAME ISO_TIME NATURE LAT LON WMO_WIND WMO_PRES WMO_AGENCY TRACK_TYPE DIST2LAND LANDFALL IFLAG USA_AGENCY USA_ATCF_ID USA_LAT USA_LON USA_RECORD USA_STATUS USA_WIND USA_PRES USA_SSHS USA_R34_NE USA_R34_SE USA_R34_SW USA_R34_NW USA_R50_NE USA_R50_SE USA_R50_SW USA_R50_NW USA_R64_NE USA_R64_SE USA_R64_SW USA_R64_NW USA_POCI USA_ROCI USA_RMW USA_EYE TOKYO_LAT TOKYO_LON TOKYO_GRADE TOKYO_WIND TOKYO_PRES TOKYO_R50_DIR TOKYO_R50_LONG TOKYO_R50_SHORT TOKYO_R30_DIR TOKYO_R30_LONG TOKYO_R30_SHORT TOKYO_LAND CMA_LAT CMA_LON CMA_CAT CMA_WIND CMA_PRES HKO_LAT HKO_LON HKO_CAT HKO_WIND HKO_PRES NEWDELHI_LAT NEWDELHI_LON NEWDELHI_GRADE NEWDELHI_WIND NEWDELHI_PRES NEWDELHI_CI NEWDELHI_DP NEWDELHI_POCI REUNION_LAT REUNION_LON REUNION_TYPE REUNION_WIND REUNION_PRES REUNION_TNUM REUNION_CI REUNION_RMW REUNION_R34_NE REUNION_R34_SE REUNION_R34_SW REUNION_R34_NW REUNION_R50_NE REUNION_R50_SE REUNION_R50_SW REUNION_R50_NW REUNION_R64_NE REUNION_R64_SE REUNION_R64_SW REUNION_R64_NW BOM_LAT BOM_LON BOM_TYPE BOM_WIND BOM_PRES BOM_TNUM BOM_CI BOM_RMW BOM_R34_NE BOM_R34_SE BOM_R34_SW BOM_R34_NW BOM_R50_NE BOM_R50_SE BOM_R50_SW BOM_R50_NW BOM_R64_NE BOM_R64_SE BOM_R64_SW BOM_R64_NW BOM_ROCI BOM_POCI BOM_EYE BOM_POS_METHOD BOM_PRES_METHOD NADI_LAT NADI_LON NADI_CAT NADI_WIND NADI_PRES WELLINGTON_LAT WELLINGTON_LON WELLINGTON_WIND WELLINGTON_PRES DS824_LAT DS824_LON DS824_STAGE DS824_WIND DS824_PRES TD9636_LAT TD9636_LON TD9636_STAGE TD9636_WIND TD9636_PRES TD9635_LAT TD9635_LON TD9635_WIND TD9635_PRES TD9635_ROCI NEUMANN_LAT NEUMANN_LON NEUMANN_CLASS NEUMANN_WIND NEUMANN_PRES MLC_LAT MLC_LON MLC_CLASS MLC_WIND MLC_PRES USA_GUST BOM_GUST BOM_GUST_PER REUNION_GUST REUNION_GUST_PER USA_SEAHGT USA_SEARAD_NE USA_SEARAD_SE USA_SEARAD_SW USA_SEARAD_NW STORM_SPEED STORM_DIR
1926272N17128 1926 50 WP MM NOT_NAMED 1926-09-28 22:00:00 NR 16.5000 127.600 main 450 381 __________O___ -1 16.5000 127.600 2 29 275
1926272N17128 1926 50 WP MM NOT_NAMED 1926-09-29 00:00:00 NR 16.5808 126.588 main 381 277 __________P___ -1 16.5808 126.588 2 29 275
1926272N17128 1926 50 WP MM NOT_NAMED 1926-09-29 03:00:00 NR 16.6921 125.067 main 277 107 __________P___ -1 16.6921 125.067 2 29 274
1926272N17128 1926 50 WP MM NOT_NAMED 1926-09-29 06:00:00 NR 16.7906 123.542 main 107 0 __________P___ -1 16.7906 123.542 2 29 274
1926272N17128 1926 50 WP MM NOT_NAMED 1926-09-29 09:00:00 NR 16.8751 122.012 main 0 0 __________P___ -1 16.8751 122.012 2 29 273
1926272N17128 1926 50 WP MM NOT_NAMED 1926-09-29 10:00:00 NR 16.9000 121.500 main 0 0 __________O___ -1 16.9000 121.500 2 29 273
1926272N17128 1926 50 WP MM NOT_NAMED 1926-09-29 12:00:00 NR 16.9447 120.476 main 0 10 __________P___ -1 16.9447 120.476 2 29 272
1926272N17128 1926 50 WP MM NOT_NAMED 1926-09-29 15:00:00 NR 17.0003 118.977 main 115 123 __________P___ -1 17.0003 118.977 2 28 272
1926272N17128 1926 50 WP MM NOT_NAMED 1926-09-29 18:00:00 NR 17.0457 117.580 main 247 257 __________P___ -1 17.0457 117.580 2 25 272
1926272N17128 1926 50 WP MM NOT_NAMED 1926-09-29 21:00:00 NR 17.0863 116.357 main 372 382 __________P___ -1 17.0863 116.357 2 23 272
1926272N17128 1926 50 WP MM NOT_NAMED 1926-09-29 22:00:00 NR 17.1000 116.000 main 413 413 __________O___ -1 17.1000 116.000 2 19 273
1926272N17128 1926 50 WP MM NOT_NAMED 1926-09-30 00:00:00 NR 17.1319 115.385 main 474 465 __________P___ -1 17.1319 115.385 2 16 274
1926272N17128 1926 50 WP MM NOT_NAMED 1926-09-30 03:00:00 NR 17.1835 114.639 main 465 411 __________P___ -1 17.1835 114.639 2 13 275
1926272N17128 1926 50 WP MM NOT_NAMED 1926-09-30 06:00:00 NR 17.2362 114.033 main 411 358 __________P___ -1 17.2362 114.033 2 11 275
1926272N17128 1926 50 WP MM NOT_NAMED 1926-09-30 09:00:00 NR 17.2854 113.484 main 358 340 __________P___ -1 17.2854 113.484 2 11 275
1926272N17128 1926 50 WP MM NOT_NAMED 1926-09-30 10:00:00 NR 17.3000 113.300 main 340 304 __________O___ -1 17.3000 113.300 2 12 274
1926272N17128 1926 50 WP MM NOT_NAMED 1926-09-30 12:00:00 NR 17.3242 112.880 main 304 246 __________P___ -1 17.3242 112.880 2 12 273
1926272N17128 1926 50 WP MM NOT_NAMED 1926-09-30 15:00:00 NR 17.3548 112.262 main 246 193 __________P___ -1 17.3548 112.262 2 12 273
1926272N17128 1926 50 WP MM NOT_NAMED 1926-09-30 18:00:00 NR 17.3787 111.646 main 193 154 __________P___ -1 17.3787 111.646 2 12 272
1926272N17128 1926 50 WP MM NOT_NAMED 1926-09-30 21:00:00 NR 17.3958 111.016 main 154 140 __________P___ -1 17.3958 111.016 2 12 272
1926272N17128 1926 50 WP MM NOT_NAMED 1926-09-30 22:00:00 NR 17.4000 110.800 main 140 116 __________O___ -1 17.4000 110.800 3 13 271
1926272N17128 1926 50 WP MM NOT_NAMED 1926-10-01 00:00:00 NR 17.4107 110.351 main 116 89 __________P___ -1 17.4107 110.351 3 13 271
1926272N17128 1926 50 WP MM NOT_NAMED 1926-10-01 03:00:00 NR 17.4207 109.657 main 89 89 __________P___ -1 17.4207 109.657 3 13 270
1926272N17128 1926 50 WP MM NOT_NAMED 1926-10-01 06:00:00 NR 17.4207 108.950 main 109 109 __________P___ -1 17.4207 108.950 3 14 269
1926272N17128 1926 50 WP MM NOT_NAMED 1926-10-01 09:00:00 NR 17.4077 108.237 main 109 99 __________P___ -1 17.4077 108.237 3 14 269
1926272N17128 1926 50 WP MM NOT_NAMED 1926-10-01 10:00:00 NR 17.4000 108.000 main 99 54 __________O___ -1 17.4000 108.000 4 14 268
1926272N17128 1926 50 WP MM NOT_NAMED 1926-10-01 12:00:00 NR 17.3791 107.528 main 54 0 __________P___ -1 17.3791 107.528 4 13 267
1926272N17128 1926 50 WP MM NOT_NAMED 1926-10-01 15:00:00 NR 17.3361 106.825 main 0 0 __________P___ -1 17.3361 106.825 4 13 266
1926272N17128 1926 50 WP MM NOT_NAMED 1926-10-01 18:00:00 NR 17.2823 106.127 main 0 0 __________P___ -1 17.2823 106.127 4 13 265
1926272N17128 1926 50 WP MM NOT_NAMED 1926-10-01 21:00:00 NR 17.2213 105.431 main 0 0 __________P___ -1 17.2213 105.431 4 13 265
1926272N17128 1926 50 WP MM NOT_NAMED 1926-10-01 22:00:00 NR 17.2000 105.200 main 0 __________O___ -1 17.2000 105.200 4 13 264

デジタル台風データ・検索

IBTrACS Databaseについて

本データベースは、米国NOAAが公開する1842年以降の世界の熱帯低気圧のベストトラックデータアーカイブInternational Best Track Archive for Climate Stewardship (IBTrACS)を、ウェブで閲覧しやすい形式に変換したものです。

最終更新日:2021-10-08